Terminal Aerodrome Forecast
Issued by NWS

Home | Current Version | Previous Version | Text Only | Print | Product List | Glossary On
Versions: 1 2 3 4 5 6 7 8 9 10 11 12 13 14 15 16 17 18
000
FTUS41 KGYX 292321
TAFHIE
TAF
KHIE 292321Z 3000/3024 16005KT P6SM SCT025 BKN120
      TEMPO 3000/3004 5SM -SHRA BR SCT015 BKN025 OVC090
     FM300400 VRB03KT 3SM -SHRA BR BKN020 OVC045
     FM300800 00000KT 2SM -SHRA BR OVC012
     FM301300 VRB03KT 5SM SHRA BR SCT020 BKN035 OVC080 WS015/23030KT
     FM301700 24008KT 6SM HZ SCT040 BKN100=

USA.gov is the U.S. government's official web portal to all federal, state and local government web resources and services.